sensor_id;sensor_type;location;lat;lon;timestamp;P1;durP1;ratioP1;P2;durP2;ratioP2
7607;SDS011;3845;48.120;11.534;2022-07-04T00:00:48;2.10;;;1.90;;
7607;SDS011;3845;48.120;11.534;2022-07-04T00:03:13;2.03;;;1.80;;
7607;SDS011;3845;48.120;11.534;2022-07-04T00:05:39;4.43;;;2.10;;
7607;SDS011;3845;48.120;11.534;2022-07-04T00:08:04;4.33;;;2.10;;
7607;SDS011;3845;48.120;11.534;2022-07-04T00:10:29;2.30;;;2.10;;
7607;SDS011;3845;48.120;11.534;2022-07-04T00:12:55;2.53;;;2.33;;
7607;SDS011;3845;48.120;11.534;2022-07-04T00:15:21;3.00;;;2.10;;
7607;SDS011;3845;48.120;11.534;2022-07-04T00:17:47;2.47;;;2.17;;
7607;SDS011;3845;48.120;11.534;2022-07-04T00:20:12;3.70;;;2.33;;
7607;SDS011;3845;48.120;11.534;2022-07-04T00:22:38;2.60;;;2.30;;
7607;SDS011;3845;48.120;11.534;2022-07-04T00:25:03;3.97;;;2.07;;
7607;SDS011;3845;48.120;11.534;2022-07-04T00:27:29;2.53;;;2.10;;
7607;SDS011;3845;48.120;11.534;2022-07-04T00:29:55;2.90;;;2.13;;
7607;SDS011;3845;48.120;11.534;2022-07-04T00:32:20;3.57;;;2.10;;
7607;SDS011;3845;48.120;11.534;2022-07-04T00:34:45;3.17;;;2.27;;
7607;SDS011;3845;48.120;11.534;2022-07-04T00:37:11;2.10;;;1.90;;
7607;SDS011;3845;48.120;11.534;2022-07-04T00:39:36;2.63;;;1.90;;
7607;SDS011;3845;48.120;11.534;2022-07-04T00:42:02;3.13;;;2.30;;
7607;SDS011;3845;48.120;11.534;2022-07-04T00:44:27;2.03;;;1.80;;
7607;SDS011;3845;48.120;11.534;2022-07-04T00:46:53;2.30;;;2.10;;
7607;SDS011;3845;48.120;11.534;2022-07-04T00:49:18;2.00;;;1.80;;
7607;SDS011;3845;48.120;11.534;2022-07-04T00:51:44;1.97;;;1.67;;
7607;SDS011;3845;48.120;11.534;2022-07-04T00:54:11;2.00;;;1.63;;
7607;SDS011;3845;48.120;11.534;2022-07-04T00:56:38;1.83;;;1.70;;
7607;SDS011;3845;48.120;11.534;2022-07-04T00:59:04;2.30;;;2.10;;
7607;SDS011;3845;48.120;11.534;2022-07-04T01:01:30;2.43;;;2.07;;
7607;SDS011;3845;48.120;11.534;2022-07-04T01:03:56;3.07;;;2.13;;
7607;SDS011;3845;48.120;11.534;2022-07-04T01:06:21;3.83;;;1.87;;
7607;SDS011;3845;48.120;11.534;2022-07-04T01:08:47;2.87;;;2.10;;
7607;SDS011;3845;48.120;11.534;2022-07-04T01:11:12;2.93;;;2.53;;
7607;SDS011;3845;48.120;11.534;2022-07-04T01:13:38;2.20;;;1.90;;
7607;SDS011;3845;48.120;11.534;2022-07-04T01:16:05;2.10;;;1.90;;
7607;SDS011;3845;48.120;11.534;2022-07-04T01:18:31;3.30;;;1.80;;
7607;SDS011;3845;48.120;11.534;2022-07-04T01:20:56;1.70;;;1.60;;
7607;SDS011;3845;48.120;11.534;2022-07-04T01:23:21;2.17;;;1.70;;
7607;SDS011;3845;48.120;11.534;2022-07-04T01:25:47;2.00;;;1.77;;
7607;SDS011;3845;48.120;11.534;2022-07-04T01:28:15;2.17;;;1.60;;
7607;SDS011;3845;48.120;11.534;2022-07-04T01:30:40;2.10;;;1.90;;
7607;SDS011;3845;48.120;11.534;2022-07-04T01:33:05;2.50;;;1.60;;
7607;SDS011;3845;48.120;11.534;2022-07-04T01:35:31;1.97;;;1.70;;
7607;SDS011;3845;48.120;11.534;2022-07-04T01:37:56;2.00;;;1.73;;
7607;SDS011;3845;48.120;11.534;2022-07-04T01:40:22;1.77;;;1.67;;
7607;SDS011;3845;48.120;11.534;2022-07-04T01:42:47;1.50;;;1.40;;
7607;SDS011;3845;48.120;11.534;2022-07-04T01:45:12;1.87;;;1.60;;
7607;SDS011;3845;48.120;11.534;2022-07-04T01:47:38;1.90;;;1.70;;
7607;SDS011;3845;48.120;11.534;2022-07-04T01:50:04;2.17;;;1.57;;
7607;SDS011;3845;48.120;11.534;2022-07-04T01:52:30;1.87;;;1.73;;
7607;SDS011;3845;48.120;11.534;2022-07-04T01:54:56;2.10;;;1.90;;
7607;SDS011;3845;48.120;11.534;2022-07-04T01:57:21;1.90;;;1.70;;
7607;SDS011;3845;48.120;11.534;2022-07-04T01:59:46;2.00;;;1.80;;
7607;SDS011;3845;48.120;11.534;2022-07-04T02:02:30;2.20;;;1.80;;
7607;SDS011;3845;48.120;11.534;2022-07-04T02:04:55;2.30;;;1.70;;
7607;SDS011;3845;48.120;11.534;2022-07-04T02:07:21;2.20;;;1.60;;
7607;SDS011;3845;48.120;11.534;2022-07-04T02:09:46;3.00;;;1.60;;
7607;SDS011;3845;48.120;11.534;2022-07-04T02:12:12;2.63;;;1.40;;
7607;SDS011;3845;48.120;11.534;2022-07-04T02:14:55;1.73;;;1.40;;
7607;SDS011;3845;48.120;11.534;2022-07-04T02:17:21;1.70;;;1.50;;
7607;SDS011;3845;48.120;11.534;2022-07-04T02:19:46;1.97;;;1.73;;
7607;SDS011;3845;48.120;11.534;2022-07-04T02:22:12;2.07;;;1.63;;
7607;SDS011;3845;48.120;11.534;2022-07-04T02:24:38;1.60;;;1.50;;
7607;SDS011;3845;48.120;11.534;2022-07-04T02:27:03;1.70;;;1.60;;
7607;SDS011;3845;48.120;11.534;2022-07-04T02:29:29;3.20;;;1.80;;
7607;SDS011;3845;48.120;11.534;2022-07-04T02:31:54;2.20;;;1.67;;
7607;SDS011;3845;48.120;11.534;2022-07-04T02:34:19;2.13;;;1.60;;
7607;SDS011;3845;48.120;11.534;2022-07-04T02:36:45;2.53;;;1.70;;
7607;SDS011;3845;48.120;11.534;2022-07-04T02:39:10;2.10;;;1.70;;
7607;SDS011;3845;48.120;11.534;2022-07-04T02:41:36;1.73;;;1.63;;
7607;SDS011;3845;48.120;11.534;2022-07-04T02:44:01;1.67;;;1.50;;
7607;SDS011;3845;48.120;11.534;2022-07-04T02:46:27;1.80;;;1.70;;
7607;SDS011;3845;48.120;11.534;2022-07-04T02:48:52;1.70;;;1.60;;
7607;SDS011;3845;48.120;11.534;2022-07-04T02:51:18;1.90;;;1.70;;
7607;SDS011;3845;48.120;11.534;2022-07-04T02:53:43;1.77;;;1.67;;
7607;SDS011;3845;48.120;11.534;2022-07-04T02:56:08;2.23;;;1.73;;
7607;SDS011;3845;48.120;11.534;2022-07-04T02:58:34;1.60;;;1.50;;
7607;SDS011;3845;48.120;11.534;2022-07-04T03:00:59;1.73;;;1.60;;
7607;SDS011;3845;48.120;11.534;2022-07-04T03:03:25;1.87;;;1.50;;
7607;SDS011;3845;48.120;11.534;2022-07-04T03:05:50;1.60;;;1.50;;
7607;SDS011;3845;48.120;11.534;2022-07-04T03:08:15;1.80;;;1.43;;
7607;SDS011;3845;48.120;11.534;2022-07-04T03:10:41;1.90;;;1.70;;
7607;SDS011;3845;48.120;11.534;2022-07-04T03:13:06;1.87;;;1.70;;
7607;SDS011;3845;48.120;11.534;2022-07-04T03:15:31;1.60;;;1.50;;
7607;SDS011;3845;48.120;11.534;2022-07-04T03:17:57;1.90;;;1.60;;
7607;SDS011;3845;48.120;11.534;2022-07-04T03:20:22;1.63;;;1.50;;
7607;SDS011;3845;48.120;11.534;2022-07-04T03:22:48;3.27;;;1.70;;
7607;SDS011;3845;48.120;11.534;2022-07-04T03:25:13;2.07;;;1.53;;
7607;SDS011;3845;48.120;11.534;2022-07-04T03:27:39;2.13;;;1.60;;
7607;SDS011;3845;48.120;11.534;2022-07-04T03:30:04;1.87;;;1.60;;
7607;SDS011;3845;48.120;11.534;2022-07-04T03:32:30;2.97;;;1.83;;
7607;SDS011;3845;48.120;11.534;2022-07-04T03:34:56;3.33;;;1.70;;
7607;SDS011;3845;48.120;11.534;2022-07-04T03:37:21;1.80;;;1.70;;
7607;SDS011;3845;48.120;11.534;2022-07-04T03:39:47;2.70;;;2.20;;
7607;SDS011;3845;48.120;11.534;2022-07-04T03:42:12;2.40;;;2.20;;
7607;SDS011;3845;48.120;11.534;2022-07-04T03:44:37;2.50;;;2.10;;
7607;SDS011;3845;48.120;11.534;2022-07-04T03:47:03;2.37;;;2.13;;
7607;SDS011;3845;48.120;11.534;2022-07-04T03:49:28;2.30;;;2.10;;
7607;SDS011;3845;48.120;11.534;2022-07-04T03:51:53;2.20;;;1.90;;
7607;SDS011;3845;48.120;11.534;2022-07-04T03:54:19;2.00;;;1.70;;
7607;SDS011;3845;48.120;11.534;2022-07-04T03:56:44;2.00;;;1.80;;
7607;SDS011;3845;48.120;11.534;2022-07-04T03:59:09;2.30;;;1.90;;
7607;SDS011;3845;48.120;11.534;2022-07-04T04:01:35;2.10;;;1.90;;
7607;SDS011;3845;48.120;11.534;2022-07-04T04:04:00;2.97;;;1.77;;
7607;SDS011;3845;48.120;11.534;2022-07-04T04:06:44;3.37;;;2.40;;
7607;SDS011;3845;48.120;11.534;2022-07-04T04:09:09;2.57;;;2.30;;
7607;SDS011;3845;48.120;11.534;2022-07-04T04:11:41;2.50;;;2.30;;
7607;SDS011;3845;48.120;11.534;2022-07-04T04:14:06;2.70;;;2.20;;
7607;SDS011;3845;48.120;11.534;2022-07-04T04:16:31;2.10;;;1.90;;
7607;SDS011;3845;48.120;11.534;2022-07-04T04:18:57;1.97;;;1.87;;
7607;SDS011;3845;48.120;11.534;2022-07-04T04:21:22;2.27;;;2.00;;
7607;SDS011;3845;48.120;11.534;2022-07-04T04:23:47;2.00;;;1.70;;
7607;SDS011;3845;48.120;11.534;2022-07-04T04:26:13;2.80;;;2.10;;
7607;SDS011;3845;48.120;11.534;2022-07-04T04:28:38;1.80;;;1.70;;
7607;SDS011;3845;48.120;11.534;2022-07-04T04:31:03;1.70;;;1.60;;
7607;SDS011;3845;48.120;11.534;2022-07-04T04:33:28;2.20;;;2.00;;
7607;SDS011;3845;48.120;11.534;2022-07-04T04:35:54;2.13;;;1.93;;
7607;SDS011;3845;48.120;11.534;2022-07-04T04:38:19;2.60;;;2.30;;
7607;SDS011;3845;48.120;11.534;2022-07-04T04:40:44;2.23;;;2.03;;
7607;SDS011;3845;48.120;11.534;2022-07-04T04:43:10;2.20;;;2.00;;
7607;SDS011;3845;48.120;11.534;2022-07-04T04:45:35;2.77;;;2.00;;
7607;SDS011;3845;48.120;11.534;2022-07-04T04:48:00;2.10;;;1.90;;
7607;SDS011;3845;48.120;11.534;2022-07-04T04:50:25;2.27;;;2.07;;
7607;SDS011;3845;48.120;11.534;2022-07-04T04:52:51;2.03;;;1.83;;
7607;SDS011;3845;48.120;11.534;2022-07-04T04:55:16;2.10;;;1.90;;
7607;SDS011;3845;48.120;11.534;2022-07-04T04:57:41;2.90;;;1.80;;
7607;SDS011;3845;48.120;11.534;2022-07-04T05:00:07;2.10;;;1.90;;
7607;SDS011;3845;48.120;11.534;2022-07-04T05:02:33;2.20;;;1.90;;
7607;SDS011;3845;48.120;11.534;2022-07-04T05:04:58;2.13;;;1.93;;
7607;SDS011;3845;48.120;11.534;2022-07-04T05:07:23;2.00;;;1.90;;
7607;SDS011;3845;48.120;11.534;2022-07-04T05:09:49;2.20;;;2.00;;
7607;SDS011;3845;48.120;11.534;2022-07-04T05:12:14;2.20;;;1.93;;
7607;SDS011;3845;48.120;11.534;2022-07-04T05:14:40;2.97;;;2.00;;
7607;SDS011;3845;48.120;11.534;2022-07-04T05:17:05;3.63;;;1.90;;
7607;SDS011;3845;48.120;11.534;2022-07-04T05:19:31;2.13;;;1.80;;
7607;SDS011;3845;48.120;11.534;2022-07-04T05:21:56;2.00;;;1.80;;
7607;SDS011;3845;48.120;11.534;2022-07-04T05:24:22;2.20;;;2.00;;
7607;SDS011;3845;48.120;11.534;2022-07-04T05:26:47;2.20;;;2.00;;
7607;SDS011;3845;48.120;11.534;2022-07-04T05:29:12;2.30;;;1.90;;
7607;SDS011;3845;48.120;11.534;2022-07-04T05:31:38;2.53;;;2.03;;
7607;SDS011;3845;48.120;11.534;2022-07-04T05:34:03;2.20;;;1.83;;
7607;SDS011;3845;48.120;11.534;2022-07-04T05:36:29;14.80;;;13.30;;
7607;SDS011;3845;48.120;11.534;2022-07-04T05:38:54;16.07;;;14.50;;
7607;SDS011;3845;48.120;11.534;2022-07-04T05:41:20;13.03;;;11.83;;
7607;SDS011;3845;48.120;11.534;2022-07-04T05:43:45;7.73;;;6.93;;
7607;SDS011;3845;48.120;11.534;2022-07-04T05:46:10;6.33;;;5.73;;
7607;SDS011;3845;48.120;11.534;2022-07-04T05:48:36;6.27;;;4.80;;
7607;SDS011;3845;48.120;11.534;2022-07-04T05:51:04;3.20;;;2.90;;
7607;SDS011;3845;48.120;11.534;2022-07-04T05:53:31;2.67;;;2.40;;
7607;SDS011;3845;48.120;11.534;2022-07-04T05:55:56;2.90;;;2.20;;
7607;SDS011;3845;48.120;11.534;2022-07-04T05:58:22;2.80;;;2.17;;
7607;SDS011;3845;48.120;11.534;2022-07-04T06:00:47;2.27;;;2.07;;
7607;SDS011;3845;48.120;11.534;2022-07-04T06:03:12;2.37;;;2.10;;
7607;SDS011;3845;48.120;11.534;2022-07-04T06:05:38;2.40;;;2.10;;
7607;SDS011;3845;48.120;11.534;2022-07-04T06:08:03;2.50;;;2.00;;
7607;SDS011;3845;48.120;11.534;2022-07-04T06:10:29;2.27;;;2.07;;
7607;SDS011;3845;48.120;11.534;2022-07-04T06:12:54;2.67;;;1.90;;
7607;SDS011;3845;48.120;11.534;2022-07-04T06:15:19;3.43;;;1.90;;
7607;SDS011;3845;48.120;11.534;2022-07-04T06:17:45;2.43;;;2.00;;
7607;SDS011;3845;48.120;11.534;2022-07-04T06:20:10;2.40;;;2.20;;
7607;SDS011;3845;48.120;11.534;2022-07-04T06:22:42;3.63;;;2.83;;
7607;SDS011;3845;48.120;11.534;2022-07-04T06:25:15;3.27;;;2.37;;
7607;SDS011;3845;48.120;11.534;2022-07-04T06:27:42;3.07;;;2.00;;
7607;SDS011;3845;48.120;11.534;2022-07-04T06:30:08;3.67;;;2.60;;
7607;SDS011;3845;48.120;11.534;2022-07-04T06:32:44;2.30;;;2.10;;
7607;SDS011;3845;48.120;11.534;2022-07-04T06:35:11;2.50;;;2.30;;
7607;SDS011;3845;48.120;11.534;2022-07-04T06:37:55;4.77;;;4.27;;
7607;SDS011;3845;48.120;11.534;2022-07-04T06:40:21;4.40;;;3.13;;
7607;SDS011;3845;48.120;11.534;2022-07-04T06:42:46;3.70;;;2.60;;
7607;SDS011;3845;48.120;11.534;2022-07-04T06:45:12;2.43;;;2.10;;
7607;SDS011;3845;48.120;11.534;2022-07-04T06:47:37;2.77;;;2.57;;
7607;SDS011;3845;48.120;11.534;2022-07-04T06:50:02;3.10;;;2.60;;
7607;SDS011;3845;48.120;11.534;2022-07-04T06:52:28;2.30;;;2.10;;
7607;SDS011;3845;48.120;11.534;2022-07-04T06:54:53;3.83;;;2.97;;
7607;SDS011;3845;48.120;11.534;2022-07-04T06:57:19;4.33;;;3.20;;
7607;SDS011;3845;48.120;11.534;2022-07-04T06:59:44;3.80;;;3.40;;
7607;SDS011;3845;48.120;11.534;2022-07-04T07:02:09;3.20;;;2.90;;
7607;SDS011;3845;48.120;11.534;2022-07-04T07:04:34;6.37;;;4.70;;
7607;SDS011;3845;48.120;11.534;2022-07-04T07:07:00;4.23;;;3.83;;
7607;SDS011;3845;48.120;11.534;2022-07-04T07:09:25;4.23;;;3.20;;
7607;SDS011;3845;48.120;11.534;2022-07-04T07:11:50;3.70;;;2.33;;
7607;SDS011;3845;48.120;11.534;2022-07-04T07:14:16;3.70;;;2.20;;
7607;SDS011;3845;48.120;11.534;2022-07-04T07:16:41;2.20;;;2.00;;
7607;SDS011;3845;48.120;11.534;2022-07-04T07:19:06;2.60;;;2.00;;
7607;SDS011;3845;48.120;11.534;2022-07-04T07:21:32;2.07;;;1.87;;
7607;SDS011;3845;48.120;11.534;2022-07-04T07:23:57;2.13;;;1.83;;
7607;SDS011;3845;48.120;11.534;2022-07-04T07:26:22;2.80;;;1.97;;
7607;SDS011;3845;48.120;11.534;2022-07-04T07:28:47;3.97;;;1.83;;
7607;SDS011;3845;48.120;11.534;2022-07-04T07:31:13;4.67;;;3.40;;
7607;SDS011;3845;48.120;11.534;2022-07-04T07:33:39;9.17;;;7.70;;
7607;SDS011;3845;48.120;11.534;2022-07-04T07:36:04;12.67;;;11.37;;
7607;SDS011;3845;48.120;11.534;2022-07-04T07:38:30;11.67;;;10.47;;
7607;SDS011;3845;48.120;11.534;2022-07-04T07:40:55;7.87;;;7.17;;
7607;SDS011;3845;48.120;11.534;2022-07-04T07:43:20;5.57;;;4.90;;
7607;SDS011;3845;48.120;11.534;2022-07-04T07:45:46;4.13;;;3.23;;
7607;SDS011;3845;48.120;11.534;2022-07-04T07:48:11;2.43;;;2.23;;
7607;SDS011;3845;48.120;11.534;2022-07-04T07:50:36;2.20;;;2.00;;
7607;SDS011;3845;48.120;11.534;2022-07-04T07:53:01;3.07;;;2.00;;
7607;SDS011;3845;48.120;11.534;2022-07-04T07:55:27;3.20;;;1.90;;
7607;SDS011;3845;48.120;11.534;2022-07-04T07:57:52;5.33;;;4.83;;
7607;SDS011;3845;48.120;11.534;2022-07-04T08:00:18;4.50;;;4.10;;
7607;SDS011;3845;48.120;11.534;2022-07-04T08:02:43;4.60;;;4.20;;
7607;SDS011;3845;48.120;11.534;2022-07-04T08:05:27;3.90;;;2.93;;
7607;SDS011;3845;48.120;11.534;2022-07-04T08:07:53;3.53;;;2.90;;
7607;SDS011;3845;48.120;11.534;2022-07-04T08:10:18;3.50;;;2.77;;
7607;SDS011;3845;48.120;11.534;2022-07-04T08:12:43;4.20;;;2.90;;
7607;SDS011;3845;48.120;11.534;2022-07-04T08:15:09;5.03;;;2.50;;
7607;SDS011;3845;48.120;11.534;2022-07-04T08:17:34;3.03;;;2.47;;
7607;SDS011;3845;48.120;11.534;2022-07-04T08:20:00;3.23;;;2.70;;
7607;SDS011;3845;48.120;11.534;2022-07-04T08:22:28;2.50;;;2.30;;
7607;SDS011;3845;48.120;11.534;2022-07-04T08:24:53;2.90;;;2.40;;
7607;SDS011;3845;48.120;11.534;2022-07-04T08:27:18;2.47;;;2.10;;
7607;SDS011;3845;48.120;11.534;2022-07-04T08:29:45;2.50;;;2.13;;
7607;SDS011;3845;48.120;11.534;2022-07-04T08:32:10;3.40;;;1.90;;
7607;SDS011;3845;48.120;11.534;2022-07-04T08:34:36;2.07;;;1.80;;
7607;SDS011;3845;48.120;11.534;2022-07-04T08:37:01;2.30;;;1.80;;
7607;SDS011;3845;48.120;11.534;2022-07-04T08:39:27;2.73;;;2.03;;
7607;SDS011;3845;48.120;11.534;2022-07-04T08:41:52;3.00;;;2.63;;
7607;SDS011;3845;48.120;11.534;2022-07-04T08:44:21;3.33;;;2.90;;
7607;SDS011;3845;48.120;11.534;2022-07-04T08:46:46;2.97;;;2.70;;
7607;SDS011;3845;48.120;11.534;2022-07-04T08:49:21;2.80;;;2.43;;
7607;SDS011;3845;48.120;11.534;2022-07-04T08:51:52;2.90;;;2.10;;
7607;SDS011;3845;48.120;11.534;2022-07-04T08:54:21;3.00;;;1.97;;
7607;SDS011;3845;48.120;11.534;2022-07-04T08:57:05;4.07;;;3.47;;
7607;SDS011;3845;48.120;11.534;2022-07-04T08:59:49;4.17;;;2.90;;
7607;SDS011;3845;48.120;11.534;2022-07-04T09:02:18;4.90;;;4.20;;
7607;SDS011;3845;48.120;11.534;2022-07-04T09:04:45;2.93;;;2.60;;
7607;SDS011;3845;48.120;11.534;2022-07-04T09:07:11;3.93;;;2.70;;
7607;SDS011;3845;48.120;11.534;2022-07-04T09:09:37;4.03;;;3.53;;
7607;SDS011;3845;48.120;11.534;2022-07-04T09:12:04;3.40;;;2.90;;
7607;SDS011;3845;48.120;11.534;2022-07-04T09:14:29;7.37;;;6.67;;
7607;SDS011;3845;48.120;11.534;2022-07-04T09:16:55;12.13;;;11.00;;
7607;SDS011;3845;48.120;11.534;2022-07-04T09:19:21;7.07;;;6.43;;
7607;SDS011;3845;48.120;11.534;2022-07-04T09:21:47;4.83;;;4.33;;
7607;SDS011;3845;48.120;11.534;2022-07-04T09:24:13;3.47;;;3.00;;
7607;SDS011;3845;48.120;11.534;2022-07-04T09:26:45;4.10;;;2.67;;
7607;SDS011;3845;48.120;11.534;2022-07-04T09:29:11;2.50;;;2.30;;
7607;SDS011;3845;48.120;11.534;2022-07-04T09:31:37;3.50;;;2.40;;
7607;SDS011;3845;48.120;11.534;2022-07-04T09:34:03;2.60;;;2.37;;
7607;SDS011;3845;48.120;11.534;2022-07-04T09:36:31;3.90;;;1.93;;
7607;SDS011;3845;48.120;11.534;2022-07-04T09:39:16;2.53;;;1.80;;
7607;SDS011;3845;48.120;11.534;2022-07-04T09:44:17;2.27;;;2.07;;
7607;SDS011;3845;48.120;11.534;2022-07-04T09:46:42;2.23;;;2.00;;
7607;SDS011;3845;48.120;11.534;2022-07-04T09:49:08;2.53;;;2.23;;
7607;SDS011;3845;48.120;11.534;2022-07-04T09:51:39;3.23;;;1.90;;
7607;SDS011;3845;48.120;11.534;2022-07-04T09:57:05;4.00;;;2.13;;
7607;SDS011;3845;48.120;11.534;2022-07-04T09:59:31;2.80;;;2.20;;
7607;SDS011;3845;48.120;11.534;2022-07-04T10:02:07;6.30;;;4.97;;
7607;SDS011;3845;48.120;11.534;2022-07-04T10:05:07;4.10;;;3.27;;
7607;SDS011;3845;48.120;11.534;2022-07-04T10:07:35;3.53;;;3.00;;
7607;SDS011;3845;48.120;11.534;2022-07-04T10:12:50;3.20;;;2.90;;
7607;SDS011;3845;48.120;11.534;2022-07-04T10:15:17;4.83;;;2.63;;
7607;SDS011;3845;48.120;11.534;2022-07-04T10:17:43;2.73;;;2.10;;
7607;SDS011;3845;48.120;11.534;2022-07-04T10:20:09;4.03;;;2.83;;
7607;SDS011;3845;48.120;11.534;2022-07-04T10:22:36;2.47;;;2.03;;
7607;SDS011;3845;48.120;11.534;2022-07-04T10:25:02;3.83;;;2.43;;
7607;SDS011;3845;48.120;11.534;2022-07-04T10:27:28;3.27;;;2.93;;
7607;SDS011;3845;48.120;11.534;2022-07-04T10:29:53;2.37;;;2.17;;
7607;SDS011;3845;48.120;11.534;2022-07-04T10:32:19;2.53;;;2.33;;
7607;SDS011;3845;48.120;11.534;2022-07-04T10:34:45;2.30;;;2.10;;
7607;SDS011;3845;48.120;11.534;2022-07-04T10:37:10;3.40;;;3.10;;
7607;SDS011;3845;48.120;11.534;2022-07-04T10:39:35;3.60;;;2.50;;
7607;SDS011;3845;48.120;11.534;2022-07-04T10:42:01;3.90;;;3.50;;
7607;SDS011;3845;48.120;11.534;2022-07-04T10:44:27;6.43;;;5.40;;
7607;SDS011;3845;48.120;11.534;2022-07-04T10:47:00;4.00;;;3.60;;
7607;SDS011;3845;48.120;11.534;2022-07-04T10:49:26;2.57;;;2.37;;
7607;SDS011;3845;48.120;11.534;2022-07-04T10:54:35;3.00;;;2.07;;
7607;SDS011;3845;48.120;11.534;2022-07-04T10:57:14;9.10;;;8.20;;
7607;SDS011;3845;48.120;11.534;2022-07-04T11:13:05;3.20;;;2.90;;
7607;SDS011;3845;48.120;11.534;2022-07-04T11:18:01;2.80;;;2.27;;
7607;SDS011;3845;48.120;11.534;2022-07-04T11:20:34;2.50;;;2.30;;
7607;SDS011;3845;48.120;11.534;2022-07-04T11:23:07;3.77;;;3.37;;
7607;SDS011;3845;48.120;11.534;2022-07-04T11:25:34;3.50;;;3.20;;
7607;SDS011;3845;48.120;11.534;2022-07-04T11:30:48;3.27;;;1.90;;
7607;SDS011;3845;48.120;11.534;2022-07-04T11:33:17;2.30;;;2.10;;
7607;SDS011;3845;48.120;11.534;2022-07-04T11:35:43;2.20;;;2.00;;
7607;SDS011;3845;48.120;11.534;2022-07-04T11:38:09;2.63;;;2.00;;
7607;SDS011;3845;48.120;11.534;2022-07-04T11:40:43;3.57;;;1.70;;
7607;SDS011;3845;48.120;11.534;2022-07-04T11:43:28;2.93;;;2.10;;
7607;SDS011;3845;48.120;11.534;2022-07-04T11:46:12;2.40;;;1.70;;
7607;SDS011;3845;48.120;11.534;2022-07-04T11:48:37;1.50;;;1.40;;
7607;SDS011;3845;48.120;11.534;2022-07-04T11:51:03;2.70;;;1.50;;
7607;SDS011;3845;48.120;11.534;2022-07-04T11:53:28;1.83;;;1.40;;
7607;SDS011;3845;48.120;11.534;2022-07-04T11:55:54;2.23;;;1.67;;
7607;SDS011;3845;48.120;11.534;2022-07-04T11:58:21;1.70;;;1.47;;
7607;SDS011;3845;48.120;11.534;2022-07-04T12:00:46;4.30;;;3.90;;
7607;SDS011;3845;48.120;11.534;2022-07-04T12:03:12;4.40;;;3.33;;
7607;SDS011;3845;48.120;11.534;2022-07-04T12:05:37;3.80;;;2.53;;
7607;SDS011;3845;48.120;11.534;2022-07-04T12:08:03;2.87;;;1.70;;
7607;SDS011;3845;48.120;11.534;2022-07-04T12:10:31;1.97;;;1.43;;
7607;SDS011;3845;48.120;11.534;2022-07-04T12:12:57;1.60;;;1.50;;
7607;SDS011;3845;48.120;11.534;2022-07-04T12:15:41;2.37;;;1.70;;
7607;SDS011;3845;48.120;11.534;2022-07-04T12:20:49;2.70;;;1.73;;
7607;SDS011;3845;48.120;11.534;2022-07-04T12:23:15;2.20;;;1.60;;
7607;SDS011;3845;48.120;11.534;2022-07-04T12:25:43;2.30;;;1.73;;
7607;SDS011;3845;48.120;11.534;2022-07-04T12:28:11;1.60;;;1.50;;
7607;SDS011;3845;48.120;11.534;2022-07-04T12:31:00;2.43;;;1.63;;
7607;SDS011;3845;48.120;11.534;2022-07-04T12:33:25;3.17;;;1.70;;
7607;SDS011;3845;48.120;11.534;2022-07-04T12:43:46;4.10;;;3.50;;
7607;SDS011;3845;48.120;11.534;2022-07-04T12:46:12;2.43;;;2.23;;
7607;SDS011;3845;48.120;11.534;2022-07-04T12:48:40;2.77;;;1.80;;
7607;SDS011;3845;48.120;11.534;2022-07-04T12:51:17;2.33;;;1.70;;
7607;SDS011;3845;48.120;11.534;2022-07-04T12:53:45;2.07;;;1.87;;
7607;SDS011;3845;48.120;11.534;2022-07-04T12:56:30;3.73;;;3.43;;
7607;SDS011;3845;48.120;11.534;2022-07-04T12:58:58;2.77;;;2.20;;
7607;SDS011;3845;48.120;11.534;2022-07-04T13:01:24;3.77;;;2.90;;
7607;SDS011;3845;48.120;11.534;2022-07-04T13:03:49;3.37;;;2.80;;
7607;SDS011;3845;48.120;11.534;2022-07-04T13:06:15;2.47;;;2.27;;
7607;SDS011;3845;48.120;11.534;2022-07-04T13:08:40;2.77;;;2.00;;
7607;SDS011;3845;48.120;11.534;2022-07-04T13:11:05;2.97;;;2.20;;
7607;SDS011;3845;48.120;11.534;2022-07-04T13:13:49;2.87;;;2.40;;
7607;SDS011;3845;48.120;11.534;2022-07-04T13:16:14;6.90;;;5.47;;
7607;SDS011;3845;48.120;11.534;2022-07-04T13:18:40;4.57;;;3.80;;
7607;SDS011;3845;48.120;11.534;2022-07-04T13:21:06;3.57;;;2.93;;
7607;SDS011;3845;48.120;11.534;2022-07-04T13:23:31;2.67;;;2.47;;
7607;SDS011;3845;48.120;11.534;2022-07-04T13:25:56;2.53;;;2.00;;
7607;SDS011;3845;48.120;11.534;2022-07-04T13:28:22;2.37;;;1.80;;
7607;SDS011;3845;48.120;11.534;2022-07-04T13:30:47;2.13;;;1.80;;
7607;SDS011;3845;48.120;11.534;2022-07-04T13:33:12;1.87;;;1.70;;
7607;SDS011;3845;48.120;11.534;2022-07-04T13:35:38;2.60;;;2.33;;
7607;SDS011;3845;48.120;11.534;2022-07-04T13:38:03;2.20;;;2.00;;
7607;SDS011;3845;48.120;11.534;2022-07-04T13:40:28;3.90;;;2.40;;
7607;SDS011;3845;48.120;11.534;2022-07-04T13:42:54;2.10;;;1.90;;
7607;SDS011;3845;48.120;11.534;2022-07-04T13:45:24;2.23;;;2.03;;
7607;SDS011;3845;48.120;11.534;2022-07-04T13:47:50;2.90;;;2.20;;
7607;SDS011;3845;48.120;11.534;2022-07-04T13:50:16;2.53;;;2.10;;
7607;SDS011;3845;48.120;11.534;2022-07-04T13:52:41;2.50;;;1.97;;
7607;SDS011;3845;48.120;11.534;2022-07-04T13:55:07;2.73;;;1.83;;
7607;SDS011;3845;48.120;11.534;2022-07-04T13:57:33;3.90;;;1.63;;
7607;SDS011;3845;48.120;11.534;2022-07-04T13:59:58;3.03;;;1.80;;
7607;SDS011;3845;48.120;11.534;2022-07-04T14:02:24;3.83;;;2.00;;
7607;SDS011;3845;48.120;11.534;2022-07-04T14:04:49;2.03;;;1.83;;
7607;SDS011;3845;48.120;11.534;2022-07-04T14:07:15;3.87;;;3.33;;
7607;SDS011;3845;48.120;11.534;2022-07-04T14:09:40;3.23;;;2.37;;
7607;SDS011;3845;48.120;11.534;2022-07-04T14:12:05;2.10;;;1.90;;
7607;SDS011;3845;48.120;11.534;2022-07-04T14:14:31;3.30;;;1.80;;
7607;SDS011;3845;48.120;11.534;2022-07-04T14:16:56;2.40;;;1.90;;
7607;SDS011;3845;48.120;11.534;2022-07-04T14:19:22;2.30;;;1.70;;
7607;SDS011;3845;48.120;11.534;2022-07-04T14:21:47;2.37;;;2.07;;
7607;SDS011;3845;48.120;11.534;2022-07-04T14:24:15;3.27;;;1.90;;
7607;SDS011;3845;48.120;11.534;2022-07-04T14:26:41;2.20;;;2.00;;
7607;SDS011;3845;48.120;11.534;2022-07-04T14:29:07;3.63;;;1.70;;
7607;SDS011;3845;48.120;11.534;2022-07-04T14:31:32;2.50;;;2.30;;
7607;SDS011;3845;48.120;11.534;2022-07-04T14:33:57;3.40;;;3.00;;
7607;SDS011;3845;48.120;11.534;2022-07-04T14:36:22;2.33;;;2.13;;
7607;SDS011;3845;48.120;11.534;2022-07-04T14:38:48;2.50;;;2.10;;
7607;SDS011;3845;48.120;11.534;2022-07-04T14:41:13;2.80;;;2.00;;
7607;SDS011;3845;48.120;11.534;2022-07-04T14:43:42;2.47;;;1.73;;
7607;SDS011;3845;48.120;11.534;2022-07-04T14:46:08;2.97;;;1.80;;
7607;SDS011;3845;48.120;11.534;2022-07-04T14:48:34;2.67;;;1.90;;
7607;SDS011;3845;48.120;11.534;2022-07-04T14:50:59;1.80;;;1.70;;
7607;SDS011;3845;48.120;11.534;2022-07-04T14:53:25;1.87;;;1.60;;
7607;SDS011;3845;48.120;11.534;2022-07-04T14:55:51;2.00;;;1.53;;
7607;SDS011;3845;48.120;11.534;2022-07-04T14:58:16;2.20;;;1.80;;
7607;SDS011;3845;48.120;11.534;2022-07-04T15:00:41;1.90;;;1.63;;
7607;SDS011;3845;48.120;11.534;2022-07-04T15:03:07;1.70;;;1.60;;
7607;SDS011;3845;48.120;11.534;2022-07-04T15:05:32;2.20;;;1.67;;
7607;SDS011;3845;48.120;11.534;2022-07-04T15:07:57;2.53;;;2.10;;
7607;SDS011;3845;48.120;11.534;2022-07-04T15:10:23;2.93;;;2.30;;
7607;SDS011;3845;48.120;11.534;2022-07-04T15:12:48;2.50;;;2.00;;
7607;SDS011;3845;48.120;11.534;2022-07-04T15:15:14;2.10;;;1.80;;
7607;SDS011;3845;48.120;11.534;2022-07-04T15:17:39;4.97;;;2.53;;
7607;SDS011;3845;48.120;11.534;2022-07-04T15:20:05;4.80;;;4.27;;
7607;SDS011;3845;48.120;11.534;2022-07-04T15:22:49;8.13;;;7.33;;
7607;SDS011;3845;48.120;11.534;2022-07-04T15:25:33;5.63;;;4.03;;
7607;SDS011;3845;48.120;11.534;2022-07-04T15:27:58;4.17;;;3.20;;
7607;SDS011;3845;48.120;11.534;2022-07-04T15:30:24;3.23;;;2.70;;
7607;SDS011;3845;48.120;11.534;2022-07-04T15:32:49;2.57;;;2.20;;
7607;SDS011;3845;48.120;11.534;2022-07-04T15:35:14;2.80;;;2.40;;
7607;SDS011;3845;48.120;11.534;2022-07-04T15:37:40;3.33;;;2.60;;